<?xml version="1.0" encoding="UTF-8" standalone="no" ?>
<gpx xmlns="http://www.topografix.com/GPX/1/1" xmlns:xsi="http://www.w3.org/2001/XMLSchema-instance" xsi:schemaLocation="http://www.topografix.com/GPX/1/1 http://www.topografix.com/GPX/1/1/gpx.xsd" version="1.1" creator="VisuGPX - https://www.visugpx.com">
  <metadata>
    <name>Etape 4 du PTT du GRP</name>
    <desc><![CDATA[Etape du vendredi matin au départ du Pla d'Adet]]></desc>
  </metadata>
  <trk>
    <name><![CDATA[OR-6766187--Cadeilhan-Trachère:GRP 2017 Challenge Etape 4]]></name>
    <trkseg>
      <trkpt lat="42.81788" lon="0.28653">
        <ele>1613</ele>
        <time>2017-04-01T23:49:49Z</time>
      </trkpt>
      <trkpt lat="42.81851" lon="0.28602">
        <ele>1599</ele>
        <time>2017-04-01T23:51:49Z</time>
      </trkpt>
      <trkpt lat="42.81915" lon="0.28393">
        <ele>1626</ele>
        <time>2017-04-01T23:53:49Z</time>
      </trkpt>
      <trkpt lat="42.81918" lon="0.28204">
        <ele>1671</ele>
        <time>2017-04-01T23:55:49Z</time>
      </trkpt>
      <trkpt lat="42.81963" lon="0.2809">
        <ele>1689</ele>
        <time>2017-04-01T23:57:49Z</time>
      </trkpt>
      <trkpt lat="42.81894" lon="0.27822">
        <ele>1759</ele>
        <time>2017-04-01T23:59:49Z</time>
      </trkpt>
      <trkpt lat="42.81889" lon="0.27761">
        <ele>1772</ele>
        <time>2017-04-02T00:01:49Z</time>
      </trkpt>
      <trkpt lat="42.81889" lon="0.27714">
        <ele>1781</ele>
        <time>2017-04-02T00:03:49Z</time>
      </trkpt>
      <trkpt lat="42.81874" lon="0.27616">
        <ele>1807</ele>
        <time>2017-04-02T00:05:49Z</time>
      </trkpt>
      <trkpt lat="42.81886" lon="0.27535">
        <ele>1830</ele>
        <time>2017-04-02T00:07:49Z</time>
      </trkpt>
      <trkpt lat="42.8193" lon="0.27472">
        <ele>1841</ele>
        <time>2017-04-02T00:09:49Z</time>
      </trkpt>
      <trkpt lat="42.82024" lon="0.27446">
        <ele>1820</ele>
        <time>2017-04-02T00:11:49Z</time>
      </trkpt>
      <trkpt lat="42.82044" lon="0.27388">
        <ele>1815</ele>
        <time>2017-04-02T00:13:49Z</time>
      </trkpt>
      <trkpt lat="42.82059" lon="0.27297">
        <ele>1810</ele>
        <time>2017-04-02T00:15:49Z</time>
      </trkpt>
      <trkpt lat="42.82045" lon="0.27107">
        <ele>1823</ele>
        <time>2017-04-02T00:17:49Z</time>
      </trkpt>
      <trkpt lat="42.82042" lon="0.26985">
        <ele>1825</ele>
        <time>2017-04-02T00:19:49Z</time>
      </trkpt>
      <trkpt lat="42.82038" lon="0.26945">
        <ele>1826</ele>
        <time>2017-04-02T00:21:49Z</time>
      </trkpt>
      <trkpt lat="42.82028" lon="0.26888">
        <ele>1828</ele>
        <time>2017-04-02T00:23:49Z</time>
      </trkpt>
      <trkpt lat="42.81954" lon="0.2674">
        <ele>1864</ele>
        <time>2017-04-02T00:25:49Z</time>
      </trkpt>
      <trkpt lat="42.81953" lon="0.26568">
        <ele>1872</ele>
        <time>2017-04-02T00:27:49Z</time>
      </trkpt>
      <trkpt lat="42.82007" lon="0.26351">
        <ele>1865</ele>
        <time>2017-04-02T00:29:49Z</time>
      </trkpt>
      <trkpt lat="42.82083" lon="0.26297">
        <ele>1833</ele>
        <time>2017-04-02T00:31:49Z</time>
      </trkpt>
      <trkpt lat="42.82099" lon="0.26245">
        <ele>1828</ele>
        <time>2017-04-02T00:33:49Z</time>
      </trkpt>
      <trkpt lat="42.82097" lon="0.26193">
        <ele>1831</ele>
        <time>2017-04-02T00:35:49Z</time>
      </trkpt>
      <trkpt lat="42.82094" lon="0.26161">
        <ele>1833</ele>
        <time>2017-04-02T00:37:49Z</time>
      </trkpt>
      <trkpt lat="42.82085" lon="0.26121">
        <ele>1838</ele>
        <time>2017-04-02T00:39:49Z</time>
      </trkpt>
      <trkpt lat="42.82091" lon="0.26084">
        <ele>1834</ele>
        <time>2017-04-02T00:41:49Z</time>
      </trkpt>
      <trkpt lat="42.82071" lon="0.26024">
        <ele>1844</ele>
        <time>2017-04-02T00:43:49Z</time>
      </trkpt>
      <trkpt lat="42.82074" lon="0.25959">
        <ele>1842</ele>
        <time>2017-04-02T00:45:49Z</time>
      </trkpt>
      <trkpt lat="42.8206" lon="0.259">
        <ele>1852</ele>
        <time>2017-04-02T00:47:49Z</time>
      </trkpt>
      <trkpt lat="42.82113" lon="0.25764">
        <ele>1836</ele>
        <time>2017-04-02T00:49:49Z</time>
      </trkpt>
      <trkpt lat="42.82138" lon="0.25695">
        <ele>1833</ele>
        <time>2017-04-02T00:51:49Z</time>
      </trkpt>
      <trkpt lat="42.82138" lon="0.25569">
        <ele>1852</ele>
        <time>2017-04-02T00:53:49Z</time>
      </trkpt>
      <trkpt lat="42.82172" lon="0.25515">
        <ele>1847</ele>
        <time>2017-04-02T00:55:49Z</time>
      </trkpt>
      <trkpt lat="42.82203" lon="0.25464">
        <ele>1843</ele>
        <time>2017-04-02T00:57:49Z</time>
      </trkpt>
      <trkpt lat="42.82216" lon="0.25406">
        <ele>1856</ele>
        <time>2017-04-02T00:59:49Z</time>
      </trkpt>
      <trkpt lat="42.82277" lon="0.25342">
        <ele>1845</ele>
        <time>2017-04-02T01:01:49Z</time>
      </trkpt>
      <trkpt lat="42.82366" lon="0.2527">
        <ele>1826</ele>
        <time>2017-04-02T01:03:49Z</time>
      </trkpt>
      <trkpt lat="42.82499" lon="0.25155">
        <ele>1811</ele>
        <time>2017-04-02T01:05:49Z</time>
      </trkpt>
      <trkpt lat="42.82549" lon="0.24909">
        <ele>1840</ele>
        <time>2017-04-02T01:07:49Z</time>
      </trkpt>
      <trkpt lat="42.8257" lon="0.24842">
        <ele>1859</ele>
        <time>2017-04-02T01:09:49Z</time>
      </trkpt>
      <trkpt lat="42.82712" lon="0.24908">
        <ele>1868</ele>
        <time>2017-04-02T01:11:49Z</time>
      </trkpt>
      <trkpt lat="42.82835" lon="0.24932">
        <ele>1874</ele>
        <time>2017-04-02T01:13:49Z</time>
      </trkpt>
      <trkpt lat="42.8293" lon="0.24823">
        <ele>1915</ele>
        <time>2017-04-02T01:15:49Z</time>
      </trkpt>
      <trkpt lat="42.83021" lon="0.24703">
        <ele>1939</ele>
        <time>2017-04-02T01:17:49Z</time>
      </trkpt>
      <trkpt lat="42.83194" lon="0.2468">
        <ele>1945</ele>
        <time>2017-04-02T01:19:49Z</time>
      </trkpt>
      <trkpt lat="42.8328" lon="0.245">
        <ele>1984</ele>
        <time>2017-04-02T01:21:49Z</time>
      </trkpt>
      <trkpt lat="42.83318" lon="0.24392">
        <ele>2005</ele>
        <time>2017-04-02T01:23:49Z</time>
      </trkpt>
      <trkpt lat="42.83378" lon="0.2416">
        <ele>2067</ele>
        <time>2017-04-02T01:25:49Z</time>
      </trkpt>
      <trkpt lat="42.83343" lon="0.24074">
        <ele>2090</ele>
        <time>2017-04-02T01:27:49Z</time>
      </trkpt>
      <trkpt lat="42.83271" lon="0.24009">
        <ele>2122</ele>
        <time>2017-04-02T01:29:49Z</time>
      </trkpt>
      <trkpt lat="42.83381" lon="0.23899">
        <ele>2149</ele>
        <time>2017-04-02T01:31:49Z</time>
      </trkpt>
      <trkpt lat="42.83459" lon="0.2373">
        <ele>2196</ele>
        <time>2017-04-02T01:33:49Z</time>
      </trkpt>
      <trkpt lat="42.83308" lon="0.23616">
        <ele>2212</ele>
        <time>2017-04-02T01:35:49Z</time>
      </trkpt>
      <trkpt lat="42.83067" lon="0.23195">
        <ele>2177</ele>
        <time>2017-04-02T01:37:49Z</time>
      </trkpt>
      <trkpt lat="42.82919" lon="0.22854">
        <ele>2121</ele>
        <time>2017-04-02T01:39:49Z</time>
      </trkpt>
      <trkpt lat="42.8285" lon="0.22534">
        <ele>2081</ele>
        <time>2017-04-02T01:41:49Z</time>
      </trkpt>
      <trkpt lat="42.82835" lon="0.2208">
        <ele>2039</ele>
        <time>2017-04-02T01:43:49Z</time>
      </trkpt>
      <trkpt lat="42.82863" lon="0.21893">
        <ele>2044</ele>
        <time>2017-04-02T01:45:49Z</time>
      </trkpt>
      <trkpt lat="42.82919" lon="0.21603">
        <ele>2071</ele>
        <time>2017-04-02T01:47:49Z</time>
      </trkpt>
      <trkpt lat="42.82932" lon="0.21429">
        <ele>2079</ele>
        <time>2017-04-02T01:49:49Z</time>
      </trkpt>
      <trkpt lat="42.82978" lon="0.21377">
        <ele>2094</ele>
        <time>2017-04-02T01:51:49Z</time>
      </trkpt>
      <trkpt lat="42.83024" lon="0.21393">
        <ele>2109</ele>
        <time>2017-04-02T01:53:49Z</time>
      </trkpt>
      <trkpt lat="42.83031" lon="0.21281">
        <ele>2104</ele>
        <time>2017-04-02T01:55:49Z</time>
      </trkpt>
      <trkpt lat="42.83159" lon="0.21086">
        <ele>2126</ele>
        <time>2017-04-02T01:57:49Z</time>
      </trkpt>
      <trkpt lat="42.83234" lon="0.20997">
        <ele>2109</ele>
        <time>2017-04-02T01:59:49Z</time>
      </trkpt>
      <trkpt lat="42.83363" lon="0.20962">
        <ele>2120</ele>
        <time>2017-04-02T02:01:49Z</time>
      </trkpt>
      <trkpt lat="42.83564" lon="0.20863">
        <ele>2105</ele>
        <time>2017-04-02T02:03:49Z</time>
      </trkpt>
      <trkpt lat="42.83725" lon="0.20845">
        <ele>2124</ele>
        <time>2017-04-02T02:05:49Z</time>
      </trkpt>
      <trkpt lat="42.8381" lon="0.20824">
        <ele>2137</ele>
        <time>2017-04-02T02:07:49Z</time>
      </trkpt>
      <trkpt lat="42.83873" lon="0.20834">
        <ele>2145</ele>
        <time>2017-04-02T02:09:49Z</time>
      </trkpt>
      <trkpt lat="42.83993" lon="0.2078">
        <ele>2130</ele>
        <time>2017-04-02T02:11:49Z</time>
      </trkpt>
      <trkpt lat="42.84075" lon="0.20832">
        <ele>2134</ele>
        <time>2017-04-02T02:13:49Z</time>
      </trkpt>
      <trkpt lat="42.84198" lon="0.20907">
        <ele>2132</ele>
        <time>2017-04-02T02:15:49Z</time>
      </trkpt>
      <trkpt lat="42.8422" lon="0.20906">
        <ele>2129</ele>
        <time>2017-04-02T02:17:49Z</time>
      </trkpt>
      <trkpt lat="42.84389" lon="0.21028">
        <ele>2166</ele>
        <time>2017-04-02T02:19:49Z</time>
      </trkpt>
      <trkpt lat="42.8446" lon="0.21007">
        <ele>2149</ele>
        <time>2017-04-02T02:21:49Z</time>
      </trkpt>
      <trkpt lat="42.84635" lon="0.2119">
        <ele>2153</ele>
        <time>2017-04-02T02:23:49Z</time>
      </trkpt>
      <trkpt lat="42.84663" lon="0.2125">
        <ele>2155</ele>
        <time>2017-04-02T02:25:49Z</time>
      </trkpt>
      <trkpt lat="42.84758" lon="0.21277">
        <ele>2170</ele>
        <time>2017-04-02T02:27:49Z</time>
      </trkpt>
      <trkpt lat="42.8482" lon="0.21345">
        <ele>2195</ele>
        <time>2017-04-02T02:29:49Z</time>
      </trkpt>
      <trkpt lat="42.84893" lon="0.21272">
        <ele>2203</ele>
        <time>2017-04-02T02:31:49Z</time>
      </trkpt>
      <trkpt lat="42.84984" lon="0.21257">
        <ele>2218</ele>
        <time>2017-04-02T02:33:49Z</time>
      </trkpt>
      <trkpt lat="42.85069" lon="0.21199">
        <ele>2222</ele>
        <time>2017-04-02T02:35:49Z</time>
      </trkpt>
      <trkpt lat="42.85122" lon="0.21197">
        <ele>2226</ele>
        <time>2017-04-02T02:37:49Z</time>
      </trkpt>
      <trkpt lat="42.85242" lon="0.21125">
        <ele>2231</ele>
        <time>2017-04-02T02:39:49Z</time>
      </trkpt>
      <trkpt lat="42.853" lon="0.21086">
        <ele>2237</ele>
        <time>2017-04-02T02:41:49Z</time>
      </trkpt>
      <trkpt lat="42.85356" lon="0.20974">
        <ele>2234</ele>
        <time>2017-04-02T02:43:49Z</time>
      </trkpt>
      <trkpt lat="42.85482" lon="0.20994">
        <ele>2248</ele>
        <time>2017-04-02T02:45:49Z</time>
      </trkpt>
      <trkpt lat="42.85562" lon="0.20942">
        <ele>2249</ele>
        <time>2017-04-02T02:47:49Z</time>
      </trkpt>
      <trkpt lat="42.85596" lon="0.20849">
        <ele>2252</ele>
        <time>2017-04-02T02:49:49Z</time>
      </trkpt>
      <trkpt lat="42.85597" lon="0.20757">
        <ele>2260</ele>
        <time>2017-04-02T02:51:49Z</time>
      </trkpt>
      <trkpt lat="42.85672" lon="0.20719">
        <ele>2274</ele>
        <time>2017-04-02T02:53:49Z</time>
      </trkpt>
      <trkpt lat="42.85804" lon="0.20741">
        <ele>2278</ele>
        <time>2017-04-02T02:55:49Z</time>
      </trkpt>
      <trkpt lat="42.85913" lon="0.20751">
        <ele>2288</ele>
        <time>2017-04-02T02:57:49Z</time>
      </trkpt>
      <trkpt lat="42.85999" lon="0.20677">
        <ele>2308</ele>
        <time>2017-04-02T02:59:49Z</time>
      </trkpt>
      <trkpt lat="42.86103" lon="0.20708">
        <ele>2328</ele>
        <time>2017-04-02T03:01:49Z</time>
      </trkpt>
      <trkpt lat="42.86134" lon="0.20665">
        <ele>2334</ele>
        <time>2017-04-02T03:03:49Z</time>
      </trkpt>
      <trkpt lat="42.86285" lon="0.20721">
        <ele>2366</ele>
        <time>2017-04-02T03:05:49Z</time>
      </trkpt>
      <trkpt lat="42.86375" lon="0.20699">
        <ele>2389</ele>
        <time>2017-04-02T03:07:49Z</time>
      </trkpt>
      <trkpt lat="42.86485" lon="0.20698">
        <ele>2429</ele>
        <time>2017-04-02T03:09:49Z</time>
      </trkpt>
      <trkpt lat="42.86517" lon="0.2066">
        <ele>2438</ele>
        <time>2017-04-02T03:11:49Z</time>
      </trkpt>
      <trkpt lat="42.86569" lon="0.20659">
        <ele>2463</ele>
        <time>2017-04-02T03:13:49Z</time>
      </trkpt>
      <trkpt lat="42.86589" lon="0.20672">
        <ele>2473</ele>
        <time>2017-04-02T03:15:49Z</time>
      </trkpt>
      <trkpt lat="42.86628" lon="0.20701">
        <ele>2488</ele>
        <time>2017-04-02T03:17:49Z</time>
      </trkpt>
      <trkpt lat="42.86688" lon="0.20658">
        <ele>2494</ele>
        <time>2017-04-02T03:19:49Z</time>
      </trkpt>
      <trkpt lat="42.86688" lon="0.2064">
        <ele>2497</ele>
        <time>2017-04-02T03:21:49Z</time>
      </trkpt>
      <trkpt lat="42.86724" lon="0.20625">
        <ele>2494</ele>
        <time>2017-04-02T03:23:49Z</time>
      </trkpt>
      <trkpt lat="42.86732" lon="0.20697">
        <ele>2491</ele>
        <time>2017-04-02T03:25:49Z</time>
      </trkpt>
      <trkpt lat="42.86871" lon="0.20715">
        <ele>2438</ele>
        <time>2017-04-02T03:27:49Z</time>
      </trkpt>
      <trkpt lat="42.87007" lon="0.20645">
        <ele>2415</ele>
        <time>2017-04-02T03:29:49Z</time>
      </trkpt>
      <trkpt lat="42.87099" lon="0.20531">
        <ele>2411</ele>
        <time>2017-04-02T03:31:49Z</time>
      </trkpt>
      <trkpt lat="42.87139" lon="0.20509">
        <ele>2411</ele>
        <time>2017-04-02T03:33:49Z</time>
      </trkpt>
      <trkpt lat="42.87189" lon="0.20522">
        <ele>2407</ele>
        <time>2017-04-02T03:35:49Z</time>
      </trkpt>
      <trkpt lat="42.87231" lon="0.20484">
        <ele>2405</ele>
        <time>2017-04-02T03:37:49Z</time>
      </trkpt>
      <trkpt lat="42.87273" lon="0.20467">
        <ele>2401</ele>
        <time>2017-04-02T03:39:49Z</time>
      </trkpt>
      <trkpt lat="42.87363" lon="0.20546">
        <ele>2385</ele>
        <time>2017-04-02T03:41:49Z</time>
      </trkpt>
      <trkpt lat="42.87412" lon="0.20544">
        <ele>2376</ele>
        <time>2017-04-02T03:43:49Z</time>
      </trkpt>
      <trkpt lat="42.87462" lon="0.20573">
        <ele>2364</ele>
        <time>2017-04-02T03:45:49Z</time>
      </trkpt>
      <trkpt lat="42.87551" lon="0.20524">
        <ele>2350</ele>
        <time>2017-04-02T03:47:49Z</time>
      </trkpt>
      <trkpt lat="42.87633" lon="0.20591">
        <ele>2325</ele>
        <time>2017-04-02T03:49:49Z</time>
      </trkpt>
      <trkpt lat="42.87722" lon="0.20533">
        <ele>2300</ele>
        <time>2017-04-02T03:51:49Z</time>
      </trkpt>
      <trkpt lat="42.87762" lon="0.20472">
        <ele>2286</ele>
        <time>2017-04-02T03:53:49Z</time>
      </trkpt>
      <trkpt lat="42.87843" lon="0.20443">
        <ele>2258</ele>
        <time>2017-04-02T03:55:49Z</time>
      </trkpt>
      <trkpt lat="42.87865" lon="0.2039">
        <ele>2251</ele>
        <time>2017-04-02T03:57:49Z</time>
      </trkpt>
      <trkpt lat="42.87908" lon="0.20398">
        <ele>2234</ele>
        <time>2017-04-02T03:59:49Z</time>
      </trkpt>
      <trkpt lat="42.87961" lon="0.20457">
        <ele>2226</ele>
        <time>2017-04-02T04:01:49Z</time>
      </trkpt>
      <trkpt lat="42.87978" lon="0.20539">
        <ele>2224</ele>
        <time>2017-04-02T04:03:49Z</time>
      </trkpt>
      <trkpt lat="42.88068" lon="0.20575">
        <ele>2219</ele>
        <time>2017-04-02T04:05:49Z</time>
      </trkpt>
      <trkpt lat="42.88112" lon="0.20595">
        <ele>2215</ele>
        <time>2017-04-02T04:07:49Z</time>
      </trkpt>
      <trkpt lat="42.88154" lon="0.20559">
        <ele>2210</ele>
        <time>2017-04-02T04:09:49Z</time>
      </trkpt>
      <trkpt lat="42.88201" lon="0.20543">
        <ele>2203</ele>
        <time>2017-04-02T04:11:49Z</time>
      </trkpt>
      <trkpt lat="42.88285" lon="0.20509">
        <ele>2193</ele>
        <time>2017-04-02T04:13:49Z</time>
      </trkpt>
      <trkpt lat="42.88379" lon="0.20502">
        <ele>2156</ele>
        <time>2017-04-02T04:15:49Z</time>
      </trkpt>
      <trkpt lat="42.88416" lon="0.2043">
        <ele>2166</ele>
        <time>2017-04-02T04:17:49Z</time>
      </trkpt>
      <trkpt lat="42.88459" lon="0.20444">
        <ele>2140</ele>
        <time>2017-04-02T04:19:49Z</time>
      </trkpt>
      <trkpt lat="42.88441" lon="0.20473">
        <ele>2138</ele>
        <time>2017-04-02T04:21:49Z</time>
      </trkpt>
      <trkpt lat="42.88479" lon="0.20487">
        <ele>2123</ele>
        <time>2017-04-02T04:23:49Z</time>
      </trkpt>
      <trkpt lat="42.88466" lon="0.20519">
        <ele>2122</ele>
        <time>2017-04-02T04:25:49Z</time>
      </trkpt>
      <trkpt lat="42.88546" lon="0.20622">
        <ele>2121</ele>
        <time>2017-04-02T04:27:49Z</time>
      </trkpt>
      <trkpt lat="42.8858" lon="0.20642">
        <ele>2130</ele>
        <time>2017-04-02T04:29:49Z</time>
      </trkpt>
      <trkpt lat="42.8867" lon="0.2055">
        <ele>2114</ele>
        <time>2017-04-02T04:31:49Z</time>
      </trkpt>
      <trkpt lat="42.8875" lon="0.20516">
        <ele>2115</ele>
        <time>2017-04-02T04:33:49Z</time>
      </trkpt>
      <trkpt lat="42.88884" lon="0.20517">
        <ele>2146</ele>
        <time>2017-04-02T04:35:49Z</time>
      </trkpt>
      <trkpt lat="42.88889" lon="0.20487">
        <ele>2141</ele>
        <time>2017-04-02T04:37:49Z</time>
      </trkpt>
      <trkpt lat="42.88978" lon="0.20331">
        <ele>2134</ele>
        <time>2017-04-02T04:39:49Z</time>
      </trkpt>
      <trkpt lat="42.89098" lon="0.20143">
        <ele>2125</ele>
        <time>2017-04-02T04:41:49Z</time>
      </trkpt>
      <trkpt lat="42.89139" lon="0.20071">
        <ele>2119</ele>
        <time>2017-04-02T04:43:49Z</time>
      </trkpt>
      <trkpt lat="42.89196" lon="0.20094">
        <ele>2119</ele>
        <time>2017-04-02T04:45:49Z</time>
      </trkpt>
      <trkpt lat="42.89217" lon="0.20062">
        <ele>2112</ele>
        <time>2017-04-02T04:47:49Z</time>
      </trkpt>
      <trkpt lat="42.89169" lon="0.20009">
        <ele>2111</ele>
        <time>2017-04-02T04:49:49Z</time>
      </trkpt>
      <trkpt lat="42.89183" lon="0.19917">
        <ele>2096</ele>
        <time>2017-04-02T04:51:49Z</time>
      </trkpt>
      <trkpt lat="42.89222" lon="0.19839">
        <ele>2087</ele>
        <time>2017-04-02T04:53:49Z</time>
      </trkpt>
      <trkpt lat="42.8925" lon="0.19807">
        <ele>2083</ele>
        <time>2017-04-02T04:55:49Z</time>
      </trkpt>
      <trkpt lat="42.89263" lon="0.19783">
        <ele>2085</ele>
        <time>2017-04-02T04:57:49Z</time>
      </trkpt>
      <trkpt lat="42.89283" lon="0.19767">
        <ele>2084</ele>
        <time>2017-04-02T04:59:49Z</time>
      </trkpt>
      <trkpt lat="42.89292" lon="0.19739">
        <ele>2087</ele>
        <time>2017-04-02T05:01:49Z</time>
      </trkpt>
      <trkpt lat="42.89339" lon="0.19743">
        <ele>2080</ele>
        <time>2017-04-02T05:03:49Z</time>
      </trkpt>
      <trkpt lat="42.8935" lon="0.19718">
        <ele>2087</ele>
        <time>2017-04-02T05:05:49Z</time>
      </trkpt>
      <trkpt lat="42.89377" lon="0.19726">
        <ele>2086</ele>
        <time>2017-04-02T05:07:49Z</time>
      </trkpt>
      <trkpt lat="42.89403" lon="0.19704">
        <ele>2095</ele>
        <time>2017-04-02T05:09:49Z</time>
      </trkpt>
      <trkpt lat="42.89442" lon="0.19739">
        <ele>2088</ele>
        <time>2017-04-02T05:11:49Z</time>
      </trkpt>
      <trkpt lat="42.89507" lon="0.19822">
        <ele>2072</ele>
        <time>2017-04-02T05:13:49Z</time>
      </trkpt>
      <trkpt lat="42.89591" lon="0.19865">
        <ele>2077</ele>
        <time>2017-04-02T05:15:49Z</time>
      </trkpt>
      <trkpt lat="42.89616" lon="0.19879">
        <ele>2074</ele>
        <time>2017-04-02T05:17:49Z</time>
      </trkpt>
      <trkpt lat="42.89632" lon="0.19925">
        <ele>2065</ele>
        <time>2017-04-02T05:19:49Z</time>
      </trkpt>
      <trkpt lat="42.89651" lon="0.19951">
        <ele>2060</ele>
        <time>2017-04-02T05:21:49Z</time>
      </trkpt>
      <trkpt lat="42.8967" lon="0.2">
        <ele>2045</ele>
        <time>2017-04-02T05:23:49Z</time>
      </trkpt>
      <trkpt lat="42.89697" lon="0.20023">
        <ele>2033</ele>
        <time>2017-04-02T05:25:49Z</time>
      </trkpt>
      <trkpt lat="42.89749" lon="0.20009">
        <ele>2026</ele>
        <time>2017-04-02T05:27:49Z</time>
      </trkpt>
      <trkpt lat="42.89781" lon="0.20038">
        <ele>2012</ele>
        <time>2017-04-02T05:29:49Z</time>
      </trkpt>
      <trkpt lat="42.89882" lon="0.20068">
        <ele>2015</ele>
        <time>2017-04-02T05:31:49Z</time>
      </trkpt>
      <trkpt lat="42.8986" lon="0.20167">
        <ele>1984</ele>
        <time>2017-04-02T05:33:49Z</time>
      </trkpt>
      <trkpt lat="42.89922" lon="0.20265">
        <ele>1974</ele>
        <time>2017-04-02T05:35:49Z</time>
      </trkpt>
      <trkpt lat="42.89986" lon="0.20428">
        <ele>1922</ele>
        <time>2017-04-02T05:37:49Z</time>
      </trkpt>
      <trkpt lat="42.90043" lon="0.20453">
        <ele>1938</ele>
        <time>2017-04-02T05:39:49Z</time>
      </trkpt>
      <trkpt lat="42.90078" lon="0.20525">
        <ele>1922</ele>
        <time>2017-04-02T05:41:49Z</time>
      </trkpt>
      <trkpt lat="42.90108" lon="0.20585">
        <ele>1903</ele>
        <time>2017-04-02T05:43:49Z</time>
      </trkpt>
      <trkpt lat="42.90149" lon="0.20694">
        <ele>1858</ele>
        <time>2017-04-02T05:45:49Z</time>
      </trkpt>
      <trkpt lat="42.90181" lon="0.20751">
        <ele>1832</ele>
        <time>2017-04-02T05:47:49Z</time>
      </trkpt>
      <trkpt lat="42.90155" lon="0.20791">
        <ele>1817</ele>
        <time>2017-04-02T05:49:49Z</time>
      </trkpt>
      <trkpt lat="42.90202" lon="0.20796">
        <ele>1816</ele>
        <time>2017-04-02T05:51:49Z</time>
      </trkpt>
      <trkpt lat="42.90231" lon="0.20843">
        <ele>1797</ele>
        <time>2017-04-02T05:53:49Z</time>
      </trkpt>
      <trkpt lat="42.90271" lon="0.20836">
        <ele>1800</ele>
        <time>2017-04-02T05:55:49Z</time>
      </trkpt>
      <trkpt lat="42.90364" lon="0.209">
        <ele>1743</ele>
        <time>2017-04-02T05:57:49Z</time>
      </trkpt>
      <trkpt lat="42.90455" lon="0.20939">
        <ele>1700</ele>
        <time>2017-04-02T05:59:49Z</time>
      </trkpt>
      <trkpt lat="42.9048" lon="0.2096">
        <ele>1687</ele>
        <time>2017-04-02T06:01:49Z</time>
      </trkpt>
      <trkpt lat="42.90502" lon="0.20938">
        <ele>1690</ele>
        <time>2017-04-02T06:03:49Z</time>
      </trkpt>
      <trkpt lat="42.90522" lon="0.20915">
        <ele>1696</ele>
        <time>2017-04-02T06:05:49Z</time>
      </trkpt>
      <trkpt lat="42.90562" lon="0.20915">
        <ele>1688</ele>
        <time>2017-04-02T06:07:49Z</time>
      </trkpt>
      <trkpt lat="42.90541" lon="0.21015">
        <ele>1654</ele>
        <time>2017-04-02T06:09:49Z</time>
      </trkpt>
      <trkpt lat="42.90585" lon="0.211">
        <ele>1621</ele>
        <time>2017-04-02T06:11:49Z</time>
      </trkpt>
      <trkpt lat="42.90646" lon="0.21121">
        <ele>1607</ele>
        <time>2017-04-02T06:13:49Z</time>
      </trkpt>
      <trkpt lat="42.90689" lon="0.21141">
        <ele>1601</ele>
        <time>2017-04-02T06:15:49Z</time>
      </trkpt>
      <trkpt lat="42.90719" lon="0.21163">
        <ele>1597</ele>
        <time>2017-04-02T06:17:49Z</time>
      </trkpt>
      <trkpt lat="42.90786" lon="0.21166">
        <ele>1595</ele>
        <time>2017-04-02T06:19:49Z</time>
      </trkpt>
      <trkpt lat="42.90863" lon="0.21146">
        <ele>1608</ele>
        <time>2017-04-02T06:21:49Z</time>
      </trkpt>
      <trkpt lat="42.90915" lon="0.21235">
        <ele>1604</ele>
        <time>2017-04-02T06:23:49Z</time>
      </trkpt>
      <trkpt lat="42.90961" lon="0.21179">
        <ele>1614</ele>
        <time>2017-04-02T06:25:49Z</time>
      </trkpt>
      <trkpt lat="42.91018" lon="0.21201">
        <ele>1598</ele>
        <time>2017-04-02T06:27:49Z</time>
      </trkpt>
      <trkpt lat="42.91041" lon="0.21142">
        <ele>1595</ele>
        <time>2017-04-02T06:29:49Z</time>
      </trkpt>
      <trkpt lat="42.91057" lon="0.21095">
        <ele>1597</ele>
        <time>2017-04-02T06:31:49Z</time>
      </trkpt>
      <trkpt lat="42.91082" lon="0.21012">
        <ele>1607</ele>
        <time>2017-04-02T06:33:49Z</time>
      </trkpt>
      <trkpt lat="42.9111" lon="0.20933">
        <ele>1630</ele>
        <time>2017-04-02T06:35:49Z</time>
      </trkpt>
      <trkpt lat="42.91156" lon="0.20881">
        <ele>1637</ele>
        <time>2017-04-02T06:37:49Z</time>
      </trkpt>
      <trkpt lat="42.91194" lon="0.20815">
        <ele>1656</ele>
        <time>2017-04-02T06:39:49Z</time>
      </trkpt>
      <trkpt lat="42.91235" lon="0.20751">
        <ele>1667</ele>
        <time>2017-04-02T06:41:49Z</time>
      </trkpt>
      <trkpt lat="42.91284" lon="0.20688">
        <ele>1670</ele>
        <time>2017-04-02T06:43:49Z</time>
      </trkpt>
      <trkpt lat="42.9132" lon="0.20625">
        <ele>1677</ele>
        <time>2017-04-02T06:45:49Z</time>
      </trkpt>
      <trkpt lat="42.91351" lon="0.20552">
        <ele>1696</ele>
        <time>2017-04-02T06:47:49Z</time>
      </trkpt>
      <trkpt lat="42.91402" lon="0.20487">
        <ele>1706</ele>
        <time>2017-04-02T06:49:49Z</time>
      </trkpt>
      <trkpt lat="42.91424" lon="0.20419">
        <ele>1724</ele>
        <time>2017-04-02T06:51:49Z</time>
      </trkpt>
      <trkpt lat="42.91461" lon="0.20356">
        <ele>1753</ele>
        <time>2017-04-02T06:53:49Z</time>
      </trkpt>
      <trkpt lat="42.91523" lon="0.20343">
        <ele>1765</ele>
        <time>2017-04-02T06:55:49Z</time>
      </trkpt>
      <trkpt lat="42.91584" lon="0.20414">
        <ele>1731</ele>
        <time>2017-04-02T06:57:49Z</time>
      </trkpt>
      <trkpt lat="42.91656" lon="0.20374">
        <ele>1727</ele>
        <time>2017-04-02T06:59:49Z</time>
      </trkpt>
      <trkpt lat="42.91707" lon="0.2033">
        <ele>1728</ele>
        <time>2017-04-02T07:01:49Z</time>
      </trkpt>
      <trkpt lat="42.91763" lon="0.2029">
        <ele>1720</ele>
        <time>2017-04-02T07:03:49Z</time>
      </trkpt>
      <trkpt lat="42.91818" lon="0.20253">
        <ele>1712</ele>
        <time>2017-04-02T07:05:49Z</time>
      </trkpt>
      <trkpt lat="42.91871" lon="0.20211">
        <ele>1704</ele>
        <time>2017-04-02T07:07:49Z</time>
      </trkpt>
      <trkpt lat="42.91927" lon="0.20162">
        <ele>1693</ele>
        <time>2017-04-02T07:09:49Z</time>
      </trkpt>
      <trkpt lat="42.91968" lon="0.20103">
        <ele>1673</ele>
        <time>2017-04-02T07:11:49Z</time>
      </trkpt>
      <trkpt lat="42.92003" lon="0.20066">
        <ele>1652</ele>
        <time>2017-04-02T07:13:49Z</time>
      </trkpt>
      <trkpt lat="42.91981" lon="0.19946">
        <ele>1649</ele>
        <time>2017-04-02T07:15:49Z</time>
      </trkpt>
      <trkpt lat="42.91967" lon="0.19848">
        <ele>1632</ele>
        <time>2017-04-02T07:17:49Z</time>
      </trkpt>
      <trkpt lat="42.91941" lon="0.19756">
        <ele>1619</ele>
        <time>2017-04-02T07:19:49Z</time>
      </trkpt>
      <trkpt lat="42.91902" lon="0.19686">
        <ele>1625</ele>
        <time>2017-04-02T07:21:49Z</time>
      </trkpt>
      <trkpt lat="42.91898" lon="0.19617">
        <ele>1618</ele>
        <time>2017-04-02T07:23:49Z</time>
      </trkpt>
      <trkpt lat="42.91893" lon="0.19521">
        <ele>1613</ele>
        <time>2017-04-02T07:25:49Z</time>
      </trkpt>
      <trkpt lat="42.91883" lon="0.19429">
        <ele>1613</ele>
        <time>2017-04-02T07:27:49Z</time>
      </trkpt>
      <trkpt lat="42.91887" lon="0.1933">
        <ele>1604</ele>
        <time>2017-04-02T07:29:49Z</time>
      </trkpt>
      <trkpt lat="42.91881" lon="0.1924">
        <ele>1600</ele>
        <time>2017-04-02T07:31:49Z</time>
      </trkpt>
      <trkpt lat="42.91883" lon="0.19145">
        <ele>1592</ele>
        <time>2017-04-02T07:33:49Z</time>
      </trkpt>
      <trkpt lat="42.91851" lon="0.19051">
        <ele>1591</ele>
        <time>2017-04-02T07:35:49Z</time>
      </trkpt>
      <trkpt lat="42.91834" lon="0.19037">
        <ele>1592</ele>
        <time>2017-04-02T07:37:49Z</time>
      </trkpt>
      <trkpt lat="42.9181" lon="0.19018">
        <ele>1596</ele>
        <time>2017-04-02T07:39:49Z</time>
      </trkpt>
      <trkpt lat="42.9178" lon="0.18975">
        <ele>1597</ele>
        <time>2017-04-02T07:41:49Z</time>
      </trkpt>
      <trkpt lat="42.91743" lon="0.1893">
        <ele>1600</ele>
        <time>2017-04-02T07:43:49Z</time>
      </trkpt>
      <trkpt lat="42.91723" lon="0.1891">
        <ele>1606</ele>
        <time>2017-04-02T07:45:49Z</time>
      </trkpt>
      <trkpt lat="42.91683" lon="0.1889">
        <ele>1616</ele>
        <time>2017-04-02T07:47:49Z</time>
      </trkpt>
      <trkpt lat="42.9165" lon="0.18873">
        <ele>1626</ele>
        <time>2017-04-02T07:49:49Z</time>
      </trkpt>
      <trkpt lat="42.91603" lon="0.18815">
        <ele>1631</ele>
        <time>2017-04-02T07:51:49Z</time>
      </trkpt>
      <trkpt lat="42.91599" lon="0.18783">
        <ele>1624</ele>
        <time>2017-04-02T07:53:49Z</time>
      </trkpt>
      <trkpt lat="42.91567" lon="0.18737">
        <ele>1623</ele>
        <time>2017-04-02T07:55:49Z</time>
      </trkpt>
      <trkpt lat="42.91522" lon="0.18739">
        <ele>1643</ele>
        <time>2017-04-02T07:57:49Z</time>
      </trkpt>
      <trkpt lat="42.9148" lon="0.18742">
        <ele>1660</ele>
        <time>2017-04-02T07:59:49Z</time>
      </trkpt>
      <trkpt lat="42.91436" lon="0.18702">
        <ele>1665</ele>
        <time>2017-04-02T08:01:49Z</time>
      </trkpt>
      <trkpt lat="42.91341" lon="0.1867">
        <ele>1691</ele>
        <time>2017-04-02T08:03:49Z</time>
      </trkpt>
      <trkpt lat="42.91324" lon="0.1861">
        <ele>1682</ele>
        <time>2017-04-02T08:05:49Z</time>
      </trkpt>
      <trkpt lat="42.91296" lon="0.18561">
        <ele>1684</ele>
        <time>2017-04-02T08:07:49Z</time>
      </trkpt>
      <trkpt lat="42.91222" lon="0.18584">
        <ele>1719</ele>
        <time>2017-04-02T08:09:49Z</time>
      </trkpt>
      <trkpt lat="42.91156" lon="0.18556">
        <ele>1739</ele>
        <time>2017-04-02T08:11:49Z</time>
      </trkpt>
      <trkpt lat="42.91138" lon="0.18488">
        <ele>1727</ele>
        <time>2017-04-02T08:13:49Z</time>
      </trkpt>
      <trkpt lat="42.91066" lon="0.18442">
        <ele>1740</ele>
        <time>2017-04-02T08:15:49Z</time>
      </trkpt>
      <trkpt lat="42.9106" lon="0.1838">
        <ele>1729</ele>
        <time>2017-04-02T08:17:49Z</time>
      </trkpt>
      <trkpt lat="42.91042" lon="0.18312">
        <ele>1722</ele>
        <time>2017-04-02T08:19:49Z</time>
      </trkpt>
      <trkpt lat="42.91028" lon="0.18204">
        <ele>1714</ele>
        <time>2017-04-02T08:21:49Z</time>
      </trkpt>
      <trkpt lat="42.91" lon="0.18157">
        <ele>1716</ele>
        <time>2017-04-02T08:23:49Z</time>
      </trkpt>
      <trkpt lat="42.91021" lon="0.18148">
        <ele>1715</ele>
        <time>2017-04-02T08:25:49Z</time>
      </trkpt>
      <trkpt lat="42.9103" lon="0.18093">
        <ele>1718</ele>
        <time>2017-04-02T08:27:49Z</time>
      </trkpt>
      <trkpt lat="42.91079" lon="0.18143">
        <ele>1710</ele>
        <time>2017-04-02T08:29:49Z</time>
      </trkpt>
      <trkpt lat="42.91149" lon="0.18089">
        <ele>1714</ele>
        <time>2017-04-02T08:31:49Z</time>
      </trkpt>
      <trkpt lat="42.9119" lon="0.18069">
        <ele>1716</ele>
        <time>2017-04-02T08:33:49Z</time>
      </trkpt>
      <trkpt lat="42.91245" lon="0.18051">
        <ele>1719</ele>
        <time>2017-04-02T08:35:49Z</time>
      </trkpt>
      <trkpt lat="42.91276" lon="0.18073">
        <ele>1714</ele>
        <time>2017-04-02T08:37:49Z</time>
      </trkpt>
      <trkpt lat="42.91364" lon="0.18042">
        <ele>1738</ele>
        <time>2017-04-02T08:39:49Z</time>
      </trkpt>
      <trkpt lat="42.9141" lon="0.18097">
        <ele>1723</ele>
        <time>2017-04-02T08:41:49Z</time>
      </trkpt>
      <trkpt lat="42.91469" lon="0.1814">
        <ele>1709</ele>
        <time>2017-04-02T08:43:49Z</time>
      </trkpt>
      <trkpt lat="42.91499" lon="0.18213">
        <ele>1684</ele>
        <time>2017-04-02T08:45:49Z</time>
      </trkpt>
      <trkpt lat="42.91579" lon="0.18252">
        <ele>1687</ele>
        <time>2017-04-02T08:47:49Z</time>
      </trkpt>
      <trkpt lat="42.91607" lon="0.18282">
        <ele>1689</ele>
        <time>2017-04-02T08:49:49Z</time>
      </trkpt>
      <trkpt lat="42.91604" lon="0.18328">
        <ele>1671</ele>
        <time>2017-04-02T08:51:49Z</time>
      </trkpt>
      <trkpt lat="42.91659" lon="0.1841">
        <ele>1653</ele>
        <time>2017-04-02T08:53:49Z</time>
      </trkpt>
      <trkpt lat="42.91768" lon="0.18505">
        <ele>1628</ele>
        <time>2017-04-02T08:55:49Z</time>
      </trkpt>
      <trkpt lat="42.91887" lon="0.18537">
        <ele>1643</ele>
        <time>2017-04-02T08:57:49Z</time>
      </trkpt>
      <trkpt lat="42.92003" lon="0.18557">
        <ele>1671</ele>
        <time>2017-04-02T08:59:49Z</time>
      </trkpt>
      <trkpt lat="42.92099" lon="0.18653">
        <ele>1661</ele>
        <time>2017-04-02T09:01:49Z</time>
      </trkpt>
      <trkpt lat="42.92176" lon="0.18673">
        <ele>1661</ele>
        <time>2017-04-02T09:03:49Z</time>
      </trkpt>
      <trkpt lat="42.92227" lon="0.18615">
        <ele>1668</ele>
        <time>2017-04-02T09:05:49Z</time>
      </trkpt>
      <trkpt lat="42.9228" lon="0.186">
        <ele>1656</ele>
        <time>2017-04-02T09:07:49Z</time>
      </trkpt>
      <trkpt lat="42.92376" lon="0.18537">
        <ele>1641</ele>
        <time>2017-04-02T09:09:49Z</time>
      </trkpt>
      <trkpt lat="42.92461" lon="0.1847">
        <ele>1615</ele>
        <time>2017-04-02T09:11:49Z</time>
      </trkpt>
      <trkpt lat="42.92571" lon="0.18357">
        <ele>1584</ele>
        <time>2017-04-02T09:13:49Z</time>
      </trkpt>
      <trkpt lat="42.9263" lon="0.18282">
        <ele>1586</ele>
        <time>2017-04-02T09:15:49Z</time>
      </trkpt>
      <trkpt lat="42.92705" lon="0.18245">
        <ele>1568</ele>
        <time>2017-04-02T09:17:49Z</time>
      </trkpt>
      <trkpt lat="42.92789" lon="0.18198">
        <ele>1563</ele>
        <time>2017-04-02T09:19:49Z</time>
      </trkpt>
      <trkpt lat="42.92831" lon="0.18138">
        <ele>1561</ele>
        <time>2017-04-02T09:21:49Z</time>
      </trkpt>
      <trkpt lat="42.92831" lon="0.18125">
        <ele>1561</ele>
        <time>2017-04-02T09:23:49Z</time>
      </trkpt>
      <trkpt lat="42.92831" lon="0.18134">
        <ele>1561</ele>
        <time>2017-04-02T09:25:49Z</time>
      </trkpt>
      <trkpt lat="42.92836" lon="0.18036">
        <ele>1566</ele>
        <time>2017-04-02T09:27:49Z</time>
      </trkpt>
      <trkpt lat="42.92859" lon="0.17953">
        <ele>1577</ele>
        <time>2017-04-02T09:29:49Z</time>
      </trkpt>
      <trkpt lat="42.92863" lon="0.17904">
        <ele>1582</ele>
        <time>2017-04-02T09:31:49Z</time>
      </trkpt>
      <trkpt lat="42.92901" lon="0.17795">
        <ele>1590</ele>
        <time>2017-04-02T09:33:49Z</time>
      </trkpt>
      <trkpt lat="42.92935" lon="0.17711">
        <ele>1598</ele>
        <time>2017-04-02T09:35:49Z</time>
      </trkpt>
      <trkpt lat="42.92954" lon="0.17619">
        <ele>1611</ele>
        <time>2017-04-02T09:37:49Z</time>
      </trkpt>
      <trkpt lat="42.9302" lon="0.17558">
        <ele>1600</ele>
        <time>2017-04-02T09:39:49Z</time>
      </trkpt>
      <trkpt lat="42.93015" lon="0.1743">
        <ele>1610</ele>
        <time>2017-04-02T09:41:49Z</time>
      </trkpt>
      <trkpt lat="42.92979" lon="0.1734">
        <ele>1634</ele>
        <time>2017-04-02T09:43:49Z</time>
      </trkpt>
      <trkpt lat="42.92953" lon="0.17234">
        <ele>1662</ele>
        <time>2017-04-02T09:45:49Z</time>
      </trkpt>
      <trkpt lat="42.92911" lon="0.17196">
        <ele>1692</ele>
        <time>2017-04-02T09:47:49Z</time>
      </trkpt>
      <trkpt lat="42.92909" lon="0.17083">
        <ele>1704</ele>
        <time>2017-04-02T09:49:49Z</time>
      </trkpt>
      <trkpt lat="42.92879" lon="0.16818">
        <ele>1757</ele>
        <time>2017-04-02T09:51:49Z</time>
      </trkpt>
      <trkpt lat="42.92847" lon="0.16663">
        <ele>1785</ele>
        <time>2017-04-02T09:53:49Z</time>
      </trkpt>
      <trkpt lat="42.92824" lon="0.16546">
        <ele>1811</ele>
        <time>2017-04-02T09:55:49Z</time>
      </trkpt>
      <trkpt lat="42.92845" lon="0.16473">
        <ele>1811</ele>
        <time>2017-04-02T09:57:49Z</time>
      </trkpt>
      <trkpt lat="42.92833" lon="0.16435">
        <ele>1822</ele>
        <time>2017-04-02T09:59:49Z</time>
      </trkpt>
      <trkpt lat="42.92852" lon="0.16385">
        <ele>1833</ele>
        <time>2017-04-02T10:01:49Z</time>
      </trkpt>
      <trkpt lat="42.92876" lon="0.16341">
        <ele>1843</ele>
        <time>2017-04-02T10:03:49Z</time>
      </trkpt>
      <trkpt lat="42.92894" lon="0.16325">
        <ele>1844</ele>
        <time>2017-04-02T10:05:49Z</time>
      </trkpt>
      <trkpt lat="42.92936" lon="0.16306">
        <ele>1846</ele>
        <time>2017-04-02T10:07:49Z</time>
      </trkpt>
      <trkpt lat="42.9301" lon="0.16293">
        <ele>1846</ele>
        <time>2017-04-02T10:09:49Z</time>
      </trkpt>
      <trkpt lat="42.93081" lon="0.16272">
        <ele>1856</ele>
        <time>2017-04-02T10:11:49Z</time>
      </trkpt>
      <trkpt lat="42.93128" lon="0.16234">
        <ele>1868</ele>
        <time>2017-04-02T10:13:49Z</time>
      </trkpt>
      <trkpt lat="42.93187" lon="0.16158">
        <ele>1880</ele>
        <time>2017-04-02T10:15:49Z</time>
      </trkpt>
      <trkpt lat="42.932" lon="0.16121">
        <ele>1881</ele>
        <time>2017-04-02T10:17:49Z</time>
      </trkpt>
      <trkpt lat="42.9323" lon="0.16092">
        <ele>1870</ele>
        <time>2017-04-02T10:19:49Z</time>
      </trkpt>
      <trkpt lat="42.93251" lon="0.16021">
        <ele>1873</ele>
        <time>2017-04-02T10:21:49Z</time>
      </trkpt>
      <trkpt lat="42.9322" lon="0.16013">
        <ele>1891</ele>
        <time>2017-04-02T10:23:49Z</time>
      </trkpt>
      <trkpt lat="42.93202" lon="0.16001">
        <ele>1903</ele>
        <time>2017-04-02T10:25:49Z</time>
      </trkpt>
      <trkpt lat="42.93219" lon="0.15979">
        <ele>1897</ele>
        <time>2017-04-02T10:27:49Z</time>
      </trkpt>
      <trkpt lat="42.93219" lon="0.15958">
        <ele>1901</ele>
        <time>2017-04-02T10:29:49Z</time>
      </trkpt>
      <trkpt lat="42.93182" lon="0.15935">
        <ele>1920</ele>
        <time>2017-04-02T10:31:49Z</time>
      </trkpt>
      <trkpt lat="42.93225" lon="0.1593">
        <ele>1903</ele>
        <time>2017-04-02T10:33:49Z</time>
      </trkpt>
      <trkpt lat="42.93202" lon="0.15888">
        <ele>1919</ele>
        <time>2017-04-02T10:35:49Z</time>
      </trkpt>
      <trkpt lat="42.93164" lon="0.15902">
        <ele>1931</ele>
        <time>2017-04-02T10:37:49Z</time>
      </trkpt>
      <trkpt lat="42.93187" lon="0.15834">
        <ele>1932</ele>
        <time>2017-04-02T10:39:49Z</time>
      </trkpt>
      <trkpt lat="42.93174" lon="0.15764">
        <ele>1956</ele>
        <time>2017-04-02T10:41:49Z</time>
      </trkpt>
      <trkpt lat="42.93162" lon="0.15731">
        <ele>1969</ele>
        <time>2017-04-02T10:43:49Z</time>
      </trkpt>
      <trkpt lat="42.93159" lon="0.15688">
        <ele>1988</ele>
        <time>2017-04-02T10:45:49Z</time>
      </trkpt>
      <trkpt lat="42.93133" lon="0.15628">
        <ele>2010</ele>
        <time>2017-04-02T10:47:49Z</time>
      </trkpt>
      <trkpt lat="42.93127" lon="0.15518">
        <ele>2051</ele>
        <time>2017-04-02T10:49:49Z</time>
      </trkpt>
      <trkpt lat="42.93107" lon="0.15436">
        <ele>2071</ele>
        <time>2017-04-02T10:51:49Z</time>
      </trkpt>
      <trkpt lat="42.9311" lon="0.15375">
        <ele>2088</ele>
        <time>2017-04-02T10:53:49Z</time>
      </trkpt>
      <trkpt lat="42.93088" lon="0.15346">
        <ele>2086</ele>
        <time>2017-04-02T10:55:49Z</time>
      </trkpt>
      <trkpt lat="42.93043" lon="0.15308">
        <ele>2092</ele>
        <time>2017-04-02T10:57:49Z</time>
      </trkpt>
      <trkpt lat="42.92991" lon="0.15415">
        <ele>2079</ele>
        <time>2017-04-02T10:59:49Z</time>
      </trkpt>
      <trkpt lat="42.92984" lon="0.1538">
        <ele>2088</ele>
        <time>2017-04-02T11:01:49Z</time>
      </trkpt>
      <trkpt lat="42.92988" lon="0.15307">
        <ele>2096</ele>
        <time>2017-04-02T11:03:49Z</time>
      </trkpt>
      <trkpt lat="42.92998" lon="0.15266">
        <ele>2097</ele>
        <time>2017-04-02T11:05:49Z</time>
      </trkpt>
      <trkpt lat="42.93021" lon="0.15198">
        <ele>2113</ele>
        <time>2017-04-02T11:07:49Z</time>
      </trkpt>
      <trkpt lat="42.93036" lon="0.15036">
        <ele>2158</ele>
        <time>2017-04-02T11:09:49Z</time>
      </trkpt>
      <trkpt lat="42.93003" lon="0.14963">
        <ele>2161</ele>
        <time>2017-04-02T11:11:49Z</time>
      </trkpt>
      <trkpt lat="42.92966" lon="0.14907">
        <ele>2173</ele>
        <time>2017-04-02T11:13:49Z</time>
      </trkpt>
      <trkpt lat="42.92909" lon="0.14784">
        <ele>2186</ele>
        <time>2017-04-02T11:15:49Z</time>
      </trkpt>
      <trkpt lat="42.92812" lon="0.14652">
        <ele>2228</ele>
        <time>2017-04-02T11:17:49Z</time>
      </trkpt>
      <trkpt lat="42.92811" lon="0.14585">
        <ele>2234</ele>
        <time>2017-04-02T11:19:49Z</time>
      </trkpt>
      <trkpt lat="42.9279" lon="0.14535">
        <ele>2248</ele>
        <time>2017-04-02T11:21:49Z</time>
      </trkpt>
      <trkpt lat="42.92777" lon="0.14479">
        <ele>2260</ele>
        <time>2017-04-02T11:23:49Z</time>
      </trkpt>
      <trkpt lat="42.92802" lon="0.14387">
        <ele>2272</ele>
        <time>2017-04-02T11:25:49Z</time>
      </trkpt>
      <trkpt lat="42.92826" lon="0.14331">
        <ele>2281</ele>
        <time>2017-04-02T11:27:49Z</time>
      </trkpt>
      <trkpt lat="42.92871" lon="0.1432">
        <ele>2285</ele>
        <time>2017-04-02T11:29:49Z</time>
      </trkpt>
      <trkpt lat="42.92886" lon="0.14298">
        <ele>2292</ele>
        <time>2017-04-02T11:31:49Z</time>
      </trkpt>
      <trkpt lat="42.92924" lon="0.143">
        <ele>2295</ele>
        <time>2017-04-02T11:33:49Z</time>
      </trkpt>
      <trkpt lat="42.9295" lon="0.14253">
        <ele>2313</ele>
        <time>2017-04-02T11:35:49Z</time>
      </trkpt>
      <trkpt lat="42.9298" lon="0.14157">
        <ele>2340</ele>
        <time>2017-04-02T11:37:49Z</time>
      </trkpt>
      <trkpt lat="42.93024" lon="0.14039">
        <ele>2370</ele>
        <time>2017-04-02T11:39:49Z</time>
      </trkpt>
      <trkpt lat="42.93054" lon="0.13953">
        <ele>2373</ele>
        <time>2017-04-02T11:41:49Z</time>
      </trkpt>
      <trkpt lat="42.93049" lon="0.13901">
        <ele>2370</ele>
        <time>2017-04-02T11:43:49Z</time>
      </trkpt>
      <trkpt lat="42.9304" lon="0.13862">
        <ele>2367</ele>
        <time>2017-04-02T11:45:49Z</time>
      </trkpt>
      <trkpt lat="42.93074" lon="0.13869">
        <ele>2367</ele>
        <time>2017-04-02T11:47:49Z</time>
      </trkpt>
      <trkpt lat="42.93105" lon="0.1387">
        <ele>2373</ele>
        <time>2017-04-02T11:49:49Z</time>
      </trkpt>
      <trkpt lat="42.93145" lon="0.13983">
        <ele>2395</ele>
        <time>2017-04-02T11:51:49Z</time>
      </trkpt>
      <trkpt lat="42.93178" lon="0.14089">
        <ele>2425</ele>
        <time>2017-04-02T11:53:49Z</time>
      </trkpt>
      <trkpt lat="42.93196" lon="0.14201">
        <ele>2453</ele>
        <time>2017-04-02T11:55:49Z</time>
      </trkpt>
      <trkpt lat="42.9318" lon="0.14263">
        <ele>2443</ele>
        <time>2017-04-02T11:57:49Z</time>
      </trkpt>
      <trkpt lat="42.93183" lon="0.14302">
        <ele>2446</ele>
        <time>2017-04-02T11:59:49Z</time>
      </trkpt>
      <trkpt lat="42.93198" lon="0.14299">
        <ele>2459</ele>
        <time>2017-04-02T12:01:49Z</time>
      </trkpt>
      <trkpt lat="42.93208" lon="0.14249">
        <ele>2468</ele>
        <time>2017-04-02T12:03:49Z</time>
      </trkpt>
      <trkpt lat="42.93224" lon="0.14151">
        <ele>2473</ele>
        <time>2017-04-02T12:05:49Z</time>
      </trkpt>
      <trkpt lat="42.93222" lon="0.1401">
        <ele>2455</ele>
        <time>2017-04-02T12:07:49Z</time>
      </trkpt>
      <trkpt lat="42.93268" lon="0.1385">
        <ele>2475</ele>
        <time>2017-04-02T12:09:49Z</time>
      </trkpt>
      <trkpt lat="42.93285" lon="0.13806">
        <ele>2487</ele>
        <time>2017-04-02T12:11:49Z</time>
      </trkpt>
      <trkpt lat="42.93283" lon="0.13742">
        <ele>2477</ele>
        <time>2017-04-02T12:13:49Z</time>
      </trkpt>
      <trkpt lat="42.93299" lon="0.13738">
        <ele>2494</ele>
        <time>2017-04-02T12:15:49Z</time>
      </trkpt>
      <trkpt lat="42.93297" lon="0.13762">
        <ele>2495</ele>
        <time>2017-04-02T12:17:49Z</time>
      </trkpt>
      <trkpt lat="42.93307" lon="0.13805">
        <ele>2510</ele>
        <time>2017-04-02T12:19:49Z</time>
      </trkpt>
      <trkpt lat="42.9331" lon="0.13904">
        <ele>2526</ele>
        <time>2017-04-02T12:21:49Z</time>
      </trkpt>
      <trkpt lat="42.93309" lon="0.13998">
        <ele>2536</ele>
        <time>2017-04-02T12:23:49Z</time>
      </trkpt>
      <trkpt lat="42.93302" lon="0.1409">
        <ele>2540</ele>
        <time>2017-04-02T12:25:49Z</time>
      </trkpt>
      <trkpt lat="42.93346" lon="0.13948">
        <ele>2564</ele>
        <time>2017-04-02T12:27:49Z</time>
      </trkpt>
      <trkpt lat="42.93362" lon="0.13852">
        <ele>2566</ele>
        <time>2017-04-02T12:29:49Z</time>
      </trkpt>
      <trkpt lat="42.93368" lon="0.13724">
        <ele>2560</ele>
        <time>2017-04-02T12:31:49Z</time>
      </trkpt>
      <trkpt lat="42.93393" lon="0.13631">
        <ele>2579</ele>
        <time>2017-04-02T12:33:49Z</time>
      </trkpt>
      <trkpt lat="42.934" lon="0.13524">
        <ele>2581</ele>
        <time>2017-04-02T12:35:49Z</time>
      </trkpt>
      <trkpt lat="42.93392" lon="0.13435">
        <ele>2568</ele>
        <time>2017-04-02T12:37:49Z</time>
      </trkpt>
      <trkpt lat="42.93414" lon="0.13431">
        <ele>2593</ele>
        <time>2017-04-02T12:39:49Z</time>
      </trkpt>
      <trkpt lat="42.93434" lon="0.13547">
        <ele>2610</ele>
        <time>2017-04-02T12:41:49Z</time>
      </trkpt>
      <trkpt lat="42.93418" lon="0.13627">
        <ele>2603</ele>
        <time>2017-04-02T12:43:49Z</time>
      </trkpt>
      <trkpt lat="42.93423" lon="0.13669">
        <ele>2607</ele>
        <time>2017-04-02T12:45:49Z</time>
      </trkpt>
      <trkpt lat="42.93458" lon="0.13705">
        <ele>2627</ele>
        <time>2017-04-02T12:47:49Z</time>
      </trkpt>
      <trkpt lat="42.93473" lon="0.13683">
        <ele>2634</ele>
        <time>2017-04-02T12:49:49Z</time>
      </trkpt>
      <trkpt lat="42.93441" lon="0.13657">
        <ele>2616</ele>
        <time>2017-04-02T12:51:49Z</time>
      </trkpt>
      <trkpt lat="42.93453" lon="0.1358">
        <ele>2622</ele>
        <time>2017-04-02T12:53:49Z</time>
      </trkpt>
      <trkpt lat="42.93468" lon="0.13545">
        <ele>2629</ele>
        <time>2017-04-02T12:55:49Z</time>
      </trkpt>
      <trkpt lat="42.93497" lon="0.13523">
        <ele>2646</ele>
        <time>2017-04-02T12:57:49Z</time>
      </trkpt>
      <trkpt lat="42.93532" lon="0.13511">
        <ele>2639</ele>
        <time>2017-04-02T12:59:49Z</time>
      </trkpt>
      <trkpt lat="42.93557" lon="0.13508">
        <ele>2632</ele>
        <time>2017-04-02T13:01:49Z</time>
      </trkpt>
      <trkpt lat="42.93565" lon="0.13539">
        <ele>2637</ele>
        <time>2017-04-02T13:03:49Z</time>
      </trkpt>
      <trkpt lat="42.93573" lon="0.13609">
        <ele>2653</ele>
        <time>2017-04-02T13:05:49Z</time>
      </trkpt>
      <trkpt lat="42.93546" lon="0.13677">
        <ele>2661</ele>
        <time>2017-04-02T13:07:49Z</time>
      </trkpt>
      <trkpt lat="42.93548" lon="0.1371">
        <ele>2665</ele>
        <time>2017-04-02T13:09:49Z</time>
      </trkpt>
      <trkpt lat="42.93584" lon="0.13674">
        <ele>2670</ele>
        <time>2017-04-02T13:11:49Z</time>
      </trkpt>
      <trkpt lat="42.93639" lon="0.13628">
        <ele>2627</ele>
        <time>2017-04-02T13:13:49Z</time>
      </trkpt>
      <trkpt lat="42.93631" lon="0.1373">
        <ele>2669</ele>
        <time>2017-04-02T13:15:49Z</time>
      </trkpt>
      <trkpt lat="42.93635" lon="0.13799">
        <ele>2696</ele>
        <time>2017-04-02T13:17:49Z</time>
      </trkpt>
      <trkpt lat="42.93675" lon="0.13776">
        <ele>2683</ele>
        <time>2017-04-02T13:19:49Z</time>
      </trkpt>
      <trkpt lat="42.9366" lon="0.13839">
        <ele>2718</ele>
        <time>2017-04-02T13:21:49Z</time>
      </trkpt>
      <trkpt lat="42.93696" lon="0.13803">
        <ele>2692</ele>
        <time>2017-04-02T13:23:49Z</time>
      </trkpt>
      <trkpt lat="42.93673" lon="0.13887">
        <ele>2744</ele>
        <time>2017-04-02T13:25:49Z</time>
      </trkpt>
      <trkpt lat="42.9366" lon="0.13971">
        <ele>2782</ele>
        <time>2017-04-02T13:27:49Z</time>
      </trkpt>
      <trkpt lat="42.93708" lon="0.13926">
        <ele>2764</ele>
        <time>2017-04-02T13:29:49Z</time>
      </trkpt>
      <trkpt lat="42.93697" lon="0.1401">
        <ele>2807</ele>
        <time>2017-04-02T13:31:49Z</time>
      </trkpt>
      <trkpt lat="42.93722" lon="0.13992">
        <ele>2800</ele>
        <time>2017-04-02T13:33:49Z</time>
      </trkpt>
      <trkpt lat="42.93702" lon="0.14071">
        <ele>2831</ele>
        <time>2017-04-02T13:35:49Z</time>
      </trkpt>
      <trkpt lat="42.93689" lon="0.14138">
        <ele>2834</ele>
        <time>2017-04-02T13:37:49Z</time>
      </trkpt>
      <trkpt lat="42.93675" lon="0.14174">
        <ele>2833</ele>
        <time>2017-04-02T13:39:49Z</time>
      </trkpt>
    </trkseg>
  </trk>
</gpx>